Observation data for Tulia on 11/17/2019      Previous  Date  Next       Current Mesonet Observations  Soil Data  Daily Summary Page  Observations in Plain Language
KTIS 170600Z 23005KT 07/01 A2997 RMK A01 T00650006  RH  067%=      5-min Rain = 0
KTIS 170605Z 24006KT 07/01 A2997 RMK A01 T00650005  RH  067%=      5-min Rain = 0
KTIS 170610Z 25005KT 07/01 A2997 RMK A01 T00650006  RH  067%=      5-min Rain = 0
KTIS 170615Z 25006KT 07/01 A2997 RMK A01 T00660005  RH  066%=      5-min Rain = 0
KTIS 170620Z 27005KT 07/01 A2998 RMK A01 T00670005  RH  065%=      5-min Rain = 0
KTIS 170625Z 28005KT 07/01 A2998 RMK A01 T00680005  RH  065%=      5-min Rain = 0
KTIS 170630Z 26004KT 07/01 A2999 RMK A01 T00660005  RH  066%=      5-min Rain = 0
KTIS 170635Z 24006KT 07/01 A2999 RMK A01 T00650005  RH  066%=      5-min Rain = 0
KTIS 170640Z 30006G11KT 06/00 A2999 RMK A01 T00620004  RH  067%=      5-min Rain = 0
KTIS 170645Z 31010KT 06/00 A2999 RMK A01 T00550004  RH  071%=      5-min Rain = 0
KTIS 170650Z 30008KT 06/00 A2999 RMK A01 T00560003  RH  070%=      5-min Rain = 0
KTIS 170655Z 30007KT 06/00 A2999 RMK A01 T00600004  RH  068%=      5-min Rain = 0
KTIS 170700Z 30008KT 06/00 A2999 RMK A01 T00630004  RH  067%=      5-min Rain = 0
KTIS 170705Z 30008KT 07/01 A2999 RMK A01 T00660005  RH  066%=      5-min Rain = 0
KTIS 170710Z 30007KT 07/00 A2999 RMK A01 T00660004  RH  066%=      5-min Rain = 0
KTIS 170715Z 30006KT 07/01 A2999 RMK A01 T00650005  RH  066%=      5-min Rain = 0
KTIS 170720Z 32007KT 07/01 A2999 RMK A01 T00690006  RH  065%=      5-min Rain = 0
KTIS 170725Z 32007KT 07/01 A2999 RMK A01 T00720007  RH  064%=      5-min Rain = 0
KTIS 170730Z 31007KT 07/01 A2999 RMK A01 T00700005  RH  064%=      5-min Rain = 0
KTIS 170735Z 31007KT 07/01 A30 RMK A01 T00650005  RH  066%=      5-min Rain = 0
KTIS 170740Z 31008KT 06/01 A30 RMK A01 T00640005  RH  066%=      5-min Rain = 0
KTIS 170745Z 32009KT 06/00 A30 RMK A01 T00640004  RH  066%=      5-min Rain = 0
KTIS 170750Z 33009KT 06/01 A30 RMK A01 T00620005  RH  068%=      5-min Rain = 0
KTIS 170755Z 34010KT 06/01 A30 RMK A01 T00610006  RH  068%=      5-min Rain = 0
KTIS 170800Z 35013KT 06/01 A30 RMK A01 T00640007  RH  068%=      5-min Rain = 0
KTIS 170805Z 35016G21KT 07/01 A30 RMK A01 T00690006  RH  065%=      5-min Rain = 0
KTIS 170810Z 00017KT 08/00 A30 RMK A01 T00750004  RH  061%=      5-min Rain = 0
KTIS 170815Z 00018G23KT 08/M00 A30 RMK A01 T00841001  RH  056%=      5-min Rain = 0
KTIS 170820Z 00018KT 09/M01 A3001 RMK A01 T00891005  RH  052%=      5-min Rain = 0
KTIS 170825Z 00018KT 09/M01 A3001 RMK A01 T00911007  RH  051%=      5-min Rain = 0
KTIS 170830Z 00019G25KT 09/M01 A3001 RMK A01 T00941009  RH  049%=      5-min Rain = 0
KTIS 170835Z 00019KT 09/M01 A3001 RMK A01 T00941010  RH  049%=      5-min Rain = 0
KTIS 170840Z 00020G25KT 09/M01 A3001 RMK A01 T00931011  RH  049%=      5-min Rain = 0
KTIS 170845Z 00021KT 09/M01 A3002 RMK A01 T00931012  RH  048%=      5-min Rain = 0
KTIS 170850Z 00019G26KT 09/M01 A3002 RMK A01 T00931013  RH  048%=      5-min Rain = 0
KTIS 170855Z 00019KT 09/M01 A3002 RMK A01 T00931014  RH  048%=      5-min Rain = 0
KTIS 170900Z 36020G26KT 09/M01 A3002 RMK A01 T00901014  RH  048%=      5-min Rain = 0
KTIS 170905Z 36022G28KT 09/M02 A3002 RMK A01 T00911015  RH  048%=      5-min Rain = 0
KTIS 170910Z 35022G27KT 09/M02 A3003 RMK A01 T00891015  RH  049%=      5-min Rain = 0
KTIS 170915Z 36024G30KT 09/M02 A3004 RMK A01 T00881015  RH  049%=      5-min Rain = 0
KTIS 170920Z 36021G27KT 09/M02 A3004 RMK A01 T00851015  RH  050%=      5-min Rain = 0
KTIS 170925Z 36020KT 08/M02 A3004 RMK A01 T00831015  RH  051%=      5-min Rain = 0
KTIS 170930Z 36024G31KT 08/M01 A3005 RMK A01 T00821013  RH  051%=      5-min Rain = 0
KTIS 170935Z 36023G30KT 08/M01 A3005 RMK A01 T00831012  RH  052%=      5-min Rain = 0
KTIS 170940Z 00020KT 08/M01 A3005 RMK A01 T00811011  RH  053%=      5-min Rain = 0
KTIS 170945Z 00019G25KT 08/M01 A3005 RMK A01 T00791011  RH  053%=      5-min Rain = 0
KTIS 170950Z 00018G23KT 08/M01 A3005 RMK A01 T00791010  RH  054%=      5-min Rain = 0
KTIS 170955Z 00019G25KT 08/M01 A3005 RMK A01 T00771010  RH  055%=      5-min Rain = 0
KTIS 171000Z 01020G26KT 08/M01 A3005 RMK A01 T00781010  RH  054%=      5-min Rain = 0
KTIS 171005Z 01018G25KT 08/M01 A3005 RMK A01 T00771009  RH  055%=      5-min Rain = 0
KTIS 171010Z 00020G27KT 08/M01 A3006 RMK A01 T00771008  RH  055%=      5-min Rain = 0
KTIS 171015Z 00019G26KT 08/M01 A3006 RMK A01 T00761008  RH  056%=      5-min Rain = 0
KTIS 171020Z 00017G22KT 07/M01 A3006 RMK A01 T00741008  RH  057%=      5-min Rain = 0
KTIS 171025Z 00016G22KT 07/M01 A3007 RMK A01 T00721007  RH  058%=      5-min Rain = 0
KTIS 171030Z 01014KT 07/M01 A3007 RMK A01 T00701007  RH  059%=      5-min Rain = 0
KTIS 171035Z 01015KT 07/M01 A3007 RMK A01 T00701007  RH  059%=      5-min Rain = 0
KTIS 171040Z 00014G20KT 07/M01 A3008 RMK A01 T00701006  RH  059%=      5-min Rain = 0
KTIS 171045Z 00015KT 07/M01 A3008 RMK A01 T00691006  RH  060%=      5-min Rain = 0
KTIS 171050Z 00015KT 07/M01 A3008 RMK A01 T00691005  RH  060%=      5-min Rain = 0
KTIS 171055Z 01012KT 07/M01 A3009 RMK A01 T00671006  RH  061%=      5-min Rain = 0
KTIS 171100Z 00013G18KT 07/M01 A3009 RMK A01 T00651006  RH  061%=      5-min Rain = 0
KTIS 171105Z 01014KT 07/M01 A3009 RMK A01 T00651005  RH  062%=      5-min Rain = 0
KTIS 171110Z 01014KT 06/M00 A301 RMK A01 T00641004  RH  062%=      5-min Rain = 0
KTIS 171115Z 00015G21KT 06/M00 A301 RMK A01 T00641004  RH  063%=      5-min Rain = 0
KTIS 171120Z 00015G20KT 06/M00 A301 RMK A01 T00631003  RH  063%=      5-min Rain = 0
KTIS 171125Z 01017G24KT 07/M00 A301 RMK A01 T00651001  RH  063%=      5-min Rain = 0
KTIS 171130Z 01017G24KT 07/00 A3011 RMK A01 T006500-0  RH  064%=      5-min Rain = 0
KTIS 171135Z 01017G22KT 06/00 A3011 RMK A01 T00640000  RH  064%=      5-min Rain = 0
KTIS 171140Z 01018G24KT 06/00 A3011 RMK A01 T00630001  RH  065%=      5-min Rain = 0
KTIS 171145Z 00018G23KT 06/00 A3011 RMK A01 T00630001  RH  065%=      5-min Rain = 0
KTIS 171150Z 00019G24KT 06/00 A3012 RMK A01 T00620002  RH  066%=      5-min Rain = 0
KTIS 171155Z 01019G28KT 06/00 A3012 RMK A01 T00620002  RH  066%=      5-min Rain = 0
KTIS 171200Z 01020G26KT 06/00 A3012 RMK A01 T00630002  RH  066%=      5-min Rain = 0
KTIS 171205Z 01019G24KT 06/00 A3012 RMK A01 T00630003  RH  066%=      5-min Rain = 0
KTIS 171210Z 00018G23KT 06/00 A3013 RMK A01 T00610002  RH  067%=      5-min Rain = 0
KTIS 171215Z 00015KT 06/00 A3013 RMK A01 T00560001  RH  069%=      5-min Rain = 0
KTIS 171220Z 00017KT 06/00 A3013 RMK A01 T00550002  RH  069%=      5-min Rain = 0
KTIS 171225Z 00016G21KT 05/00 A3014 RMK A01 T00530001  RH  070%=      5-min Rain = 0
KTIS 171230Z 00016KT 05/00 A3014 RMK A01 T00540002  RH  070%=      5-min Rain = 0
KTIS 171235Z 00016KT 05/00 A3015 RMK A01 T00520001  RH  070%=      5-min Rain = 0
KTIS 171240Z 00015KT 05/00 A3015 RMK A01 T00520001  RH  071%=      5-min Rain = 0
KTIS 171245Z 00014KT 05/00 A3015 RMK A01 T00510001  RH  071%=      5-min Rain = 0
KTIS 171250Z 00015KT 05/00 A3015 RMK A01 T00500001  RH  071%=      5-min Rain = 0
KTIS 171255Z 00015KT 05/00 A3015 RMK A01 T00500001  RH  072%=      5-min Rain = 0
KTIS 171300Z 00015KT 05/00 A3015 RMK A01 T00490001  RH  072%=      5-min Rain = 0
KTIS 171305Z 01013G18KT 05/00 A3016 RMK A01 T00490001  RH  072%=      5-min Rain = 0
KTIS 171310Z 00014G19KT 05/00 A3016 RMK A01 T00490001  RH  072%=      5-min Rain = 0
KTIS 171315Z 00013KT 05/00 A3016 RMK A01 T00480000  RH  072%=      5-min Rain = 0
KTIS 171320Z 01012G17KT 05/00 A3017 RMK A01 T00470000  RH  072%=      5-min Rain = 0
KTIS 171325Z 01012KT 05/00 A3017 RMK A01 T00470000  RH  073%=      5-min Rain = 0
KTIS 171330Z 01012G17KT 05/00 A3017 RMK A01 T00470000  RH  073%=      5-min Rain = 0
KTIS 171335Z 00012KT 05/00 A3018 RMK A01 T00470000  RH  072%=      5-min Rain = 0
KTIS 171340Z 00011KT 05/00 A3018 RMK A01 T00460000  RH  073%=      5-min Rain = 0
KTIS 171345Z 01011G16KT 05/00 A3018 RMK A01 T00470001  RH  073%=      5-min Rain = 0
KTIS 171350Z 01011KT 05/00 A3018 RMK A01 T00490001  RH  072%=      5-min Rain = 0
KTIS 171355Z 01010KT 05/00 A3019 RMK A01 T00500002  RH  072%=      5-min Rain = 0
KTIS 171400Z 01010KT 05/00 A3019 RMK A01 T00510002  RH  072%=      5-min Rain = 0
KTIS 171405Z 01010KT 05/00 A3019 RMK A01 T00530003  RH  071%=      5-min Rain = 0
KTIS 171410Z 01011KT 06/00 A3019 RMK A01 T00550004  RH  070%=      5-min Rain = 0
KTIS 171415Z 02011KT 06/01 A3019 RMK A01 T00570005  RH  070%=      5-min Rain = 0
KTIS 171420Z 01012G20KT 06/01 A3019 RMK A01 T00580005  RH  070%=      5-min Rain = 0
KTIS 171425Z 01012G17KT 06/01 A3019 RMK A01 T00600006  RH  069%=      5-min Rain = 0
KTIS 171430Z 01011G17KT 06/01 A3019 RMK A01 T00610007  RH  069%=      5-min Rain = 0
KTIS 171435Z 01012KT 06/01 A302 RMK A01 T00630008  RH  069%=      5-min Rain = 0
KTIS 171440Z 01012G17KT 06/01 A3019 RMK A01 T00640009  RH  069%=      5-min Rain = 0
KTIS 171445Z 01012G18KT 07/01 A3019 RMK A01 T00660010  RH  068%=      5-min Rain = 0
KTIS 171450Z 01013G20KT 07/01 A302 RMK A01 T00680011  RH  068%=      5-min Rain = 0
KTIS 171455Z 01014G20KT 07/01 A302 RMK A01 T00680011  RH  068%=      5-min Rain = 0
KTIS 171500Z 01015G22KT 07/01 A302 RMK A01 T00690011  RH  067%=      5-min Rain = 0
KTIS 171505Z 01015G23KT 07/01 A302 RMK A01 T00710012  RH  067%=      5-min Rain = 0
KTIS 171510Z 01016G22KT 07/01 A302 RMK A01 T00720012  RH  067%=      5-min Rain = 0
KTIS 171515Z 02014G20KT 07/01 A302 RMK A01 T00740013  RH  066%=      5-min Rain = 0
KTIS 171520Z 02016G21KT 07/01 A302 RMK A01 T00740013  RH  066%=      5-min Rain = 0
KTIS 171525Z 02015G20KT 08/01 A302 RMK A01 T00750013  RH  066%=      5-min Rain = 0
KTIS 171530Z 01013G18KT 08/01 A302 RMK A01 T00780014  RH  065%=      5-min Rain = 0
KTIS 171535Z 02015KT 08/01 A302 RMK A01 T00790014  RH  064%=      5-min Rain = 0
KTIS 171540Z 02015G20KT 08/01 A302 RMK A01 T00800013  RH  064%=      5-min Rain = 0
KTIS 171545Z 02017G22KT 08/01 A302 RMK A01 T00810013  RH  063%=      5-min Rain = 0
KTIS 171550Z 02016G21KT 08/01 A302 RMK A01 T00810013  RH  063%=      5-min Rain = 0
KTIS 171555Z 01014G19KT 08/01 A302 RMK A01 T00840014  RH  062%=      5-min Rain = 0
KTIS 171600Z 01013G18KT 09/02 A302 RMK A01 T00860015  RH  062%=      5-min Rain = 0
KTIS 171605Z 01013G18KT 09/02 A302 RMK A01 T00870015  RH  061%=      5-min Rain = 0
KTIS 171610Z 02014G19KT 09/02 A302 RMK A01 T00890015  RH  060%=      5-min Rain = 0
KTIS 171615Z 01013KT 09/02 A302 RMK A01 T00920016  RH  060%=      5-min Rain = 0
KTIS 171620Z 01013KT 09/02 A302 RMK A01 T00930016  RH  059%=      5-min Rain = 0
KTIS 171625Z 02014KT 09/02 A302 RMK A01 T00930016  RH  060%=      5-min Rain = 0
KTIS 171630Z 01013G18KT 09/02 A3019 RMK A01 T00940017  RH  059%=      5-min Rain = 0
KTIS 171635Z 02011G16KT 10/02 A302 RMK A01 T00970017  RH  059%=      5-min Rain = 0
KTIS 171640Z 00012KT 10/02 A302 RMK A01 T00980018  RH  058%=      5-min Rain = 0
KTIS 171645Z 01010G15KT 10/02 A302 RMK A01 T00980018  RH  058%=      5-min Rain = 0
KTIS 171650Z 02011KT 10/02 A302 RMK A01 T00980018  RH  058%=      5-min Rain = 0
KTIS 171655Z 01011G17KT 10/02 A302 RMK A01 T01010019  RH  057%=      5-min Rain = 0
KTIS 171700Z 36012G18KT 11/02 A3019 RMK A01 T01060020  RH  056%=      5-min Rain = 0
KTIS 171705Z 01011KT 11/02 A3019 RMK A01 T01060019  RH  056%=      5-min Rain = 0
KTIS 171710Z 00012KT 11/02 A3019 RMK A01 T01080019  RH  055%=      5-min Rain = 0
KTIS 171715Z 01010G15KT 11/02 A3019 RMK A01 T01130020  RH  054%=      5-min Rain = 0
KTIS 171720Z 01011KT 11/02 A3019 RMK A01 T01070016  RH  054%=      5-min Rain = 0
KTIS 171725Z 02011G17KT 11/02 A3019 RMK A01 T01100017  RH  054%=      5-min Rain = 0
KTIS 171730Z 01011G16KT 11/02 A3019 RMK A01 T01120018  RH  053%=      5-min Rain = 0
KTIS 171735Z 01011KT 11/02 A3018 RMK A01 T01130017  RH  052%=      5-min Rain = 0
KTIS 171740Z 01010G15KT 12/02 A3018 RMK A01 T01180019  RH  051%=      5-min Rain = 0
KTIS 171745Z 01011KT 12/02 A3018 RMK A01 T01150017  RH  052%=      5-min Rain = 0
KTIS 171750Z 01011G16KT 12/02 A3018 RMK A01 T01170018  RH  052%=      5-min Rain = 0
KTIS 171755Z 01011G16KT 12/02 A3018 RMK A01 T01150017  RH  052%=      5-min Rain = 0
KTIS 171800Z 01011G16KT 12/02 A3018 RMK A01 T01190018  RH  051%=      5-min Rain = 0
KTIS 171805Z 02010G15KT 12/02 A3018 RMK A01 T01200018  RH  050%=      5-min Rain = 0
KTIS 171810Z 00011KT 12/02 A3018 RMK A01 T01220018  RH  050%=      5-min Rain = 0
KTIS 171815Z 01011G18KT 12/02 A3018 RMK A01 T01210017  RH  050%=      5-min Rain = 0
KTIS 171820Z 36011KT 12/02 A3018 RMK A01 T01240019  RH  049%=      5-min Rain = 0
KTIS 171825Z 02013G18KT 13/02 A3018 RMK A01 T01280018  RH  048%=      5-min Rain = 0
KTIS 171830Z 02012G17KT 13/02 A3018 RMK A01 T01250016  RH  048%=      5-min Rain = 0
KTIS 171835Z 01011KT 13/02 A3018 RMK A01 T01260017  RH  048%=      5-min Rain = 0
KTIS 171840Z 02012G19KT 13/02 A3017 RMK A01 T01290019  RH  048%=      5-min Rain = 0
KTIS 171845Z 36014G20KT 13/02 A3017 RMK A01 T01300019  RH  047%=      5-min Rain = 0
KTIS 171850Z 00014G19KT 13/02 A3017 RMK A01 T01300019  RH  047%=      5-min Rain = 0
KTIS 171855Z 00011KT 13/02 A3016 RMK A01 T01300020  RH  048%=      5-min Rain = 0
KTIS 171900Z 00011G19KT 13/02 A3016 RMK A01 T01340019  RH  046%=      5-min Rain = 0
KTIS 171905Z 00014KT 13/02 A3015 RMK A01 T01320017  RH  046%=      5-min Rain = 0
KTIS 171910Z 02011G17KT 13/02 A3015 RMK A01 T01310018  RH  047%=      5-min Rain = 0
KTIS 171915Z 36011KT 13/02 A3015 RMK A01 T01310017  RH  046%=      5-min Rain = 0
KTIS 171920Z 00010G15KT 13/02 A3014 RMK A01 T01310016  RH  046%=      5-min Rain = 0
KTIS 171925Z 02010KT 14/02 A3014 RMK A01 T01350017  RH  045%=      5-min Rain = 0
KTIS 171930Z 01008KT 13/02 A3014 RMK A01 T01340016  RH  045%=      5-min Rain = 0
KTIS 171935Z 01008KT 14/02 A3014 RMK A01 T01380017  RH  045%=      5-min Rain = 0
KTIS 171940Z 02009G16KT 14/02 A3013 RMK A01 T01360017  RH  045%=      5-min Rain = 0
KTIS 171945Z 01008KT 14/02 A3013 RMK A01 T01380019  RH  045%=      5-min Rain = 0
KTIS 171950Z 00008KT 14/02 A3013 RMK A01 T01380018  RH  045%=      5-min Rain = 0
KTIS 171955Z 00006KT 14/02 A3013 RMK A01 T01400019  RH  044%=      5-min Rain = 0
KTIS 172000Z 02007KT 14/02 A3012 RMK A01 T01400016  RH  044%=      5-min Rain = 0
KTIS 172005Z 01007KT 14/02 A3012 RMK A01 T01410018  RH  044%=      5-min Rain = 0
KTIS 172010Z 34006KT 14/02 A3012 RMK A01 T01410018  RH  044%=      5-min Rain = 0
KTIS 172015Z 35006KT 14/02 A3011 RMK A01 T01440020  RH  044%=      5-min Rain = 0
KTIS 172020Z 03006KT 14/02 A3011 RMK A01 T01410016  RH  043%=      5-min Rain = 0
KTIS 172025Z 02006KT 14/01 A3011 RMK A01 T01420014  RH  043%=      5-min Rain = 0
KTIS 172030Z 01005KT 14/01 A3011 RMK A01 T01400014  RH  043%=      5-min Rain = 0
KTIS 172035Z 35007KT 14/02 A3011 RMK A01 T01420016  RH  043%=      5-min Rain = 0
KTIS 172040Z 36004KT 14/02 A3011 RMK A01 T01430016  RH  043%=      5-min Rain = 0
KTIS 172045Z 01004G9KT 14/01 A301 RMK A01 T01410014  RH  043%=      5-min Rain = 0
KTIS 172050Z 03005KT 14/01 A301 RMK A01 T01430013  RH  042%=      5-min Rain = 0
KTIS 172055Z 00004KT 14/01 A301 RMK A01 T01420013  RH  042%=      5-min Rain = 0
KTIS 172100Z 34002G7KT 14/01 A301 RMK A01 T01440014  RH  042%=      5-min Rain = 0
KTIS 172105Z 02006KT 15/01 A301 RMK A01 T01450011  RH  041%=      5-min Rain = 0
KTIS 172110Z 34006KT 14/01 A301 RMK A01 T01430010  RH  041%=      5-min Rain = 0
KTIS 172115Z 34004KT 14/01 A3009 RMK A01 T01420010  RH  041%=      5-min Rain = 0
KTIS 172120Z 32003KT 14/01 A3009 RMK A01 T01440013  RH  041%=      5-min Rain = 0
KTIS 172125Z 06003KT 15/01 A3009 RMK A01 T01460012  RH  041%=      5-min Rain = 0
KTIS 172130Z 03004KT 15/01 A3009 RMK A01 T01450011  RH  041%=      5-min Rain = 0
KTIS 172135Z 04003KT 14/01 A3009 RMK A01 T01430009  RH  041%=      5-min Rain = 0
KTIS 172140Z 04002KT 14/01 A3009 RMK A01 T01430007  RH  040%=      5-min Rain = 0
KTIS 172145Z 03004KT 14/01 A3009 RMK A01 T01440007  RH  040%=      5-min Rain = 0
KTIS 172150Z 04004KT 14/01 A3009 RMK A01 T01430007  RH  040%=      5-min Rain = 0
KTIS 172155Z 36003KT 15/01 A3009 RMK A01 T01450009  RH  040%=      5-min Rain = 0
KTIS 172200Z 00004KT 14/01 A3009 RMK A01 T01430009  RH  041%=      5-min Rain = 0
KTIS 172205Z 35002KT 15/01 A3009 RMK A01 T01450011  RH  041%=      5-min Rain = 0
KTIS 172210Z 00002KT 14/01 A3009 RMK A01 T01440009  RH  040%=      5-min Rain = 0
KTIS 172215Z 00001KT 14/01 A3009 RMK A01 T01440009  RH  040%=      5-min Rain = 0
KTIS 172220Z 00001KT 15/01 A3009 RMK A01 T01460010  RH  040%=      5-min Rain = 0
KTIS 172225Z 35002KT 14/01 A3009 RMK A01 T01440009  RH  040%=      5-min Rain = 0
KTIS 172230Z 35002KT 14/01 A3009 RMK A01 T01440009  RH  040%=      5-min Rain = 0
KTIS 172235Z 01003KT 14/01 A3009 RMK A01 T01430008  RH  040%=      5-min Rain = 0
KTIS 172240Z 03001KT 14/01 A301 RMK A01 T01410007  RH  040%=      5-min Rain = 0
KTIS 172245Z 02000KT 15/01 A301 RMK A01 T01460009  RH  040%=      5-min Rain = 0
KTIS 172250Z 02000KT 15/01 A3009 RMK A01 T01530010  RH  038%=      5-min Rain = 0
KTIS 172255Z 02000KT 15/01 A301 RMK A01 T01510008  RH  038%=      5-min Rain = 0
KTIS 172300Z 02000KT 15/01 A301 RMK A01 T01480007  RH  039%=      5-min Rain = 0
KTIS 172305Z 00000KT 15/01 A301 RMK A01 T01450007  RH  039%=      5-min Rain = 0
KTIS 172310Z 02000KT 15/01 A301 RMK A01 T01470009  RH  039%=      5-min Rain = 0
KTIS 172315Z 00000KT 15/01 A301 RMK A01 T01470010  RH  040%=      5-min Rain = 0
KTIS 172320Z 00000KT 14/01 A301 RMK A01 T01410007  RH  041%=      5-min Rain = 0
KTIS 172325Z 00000KT 14/01 A301 RMK A01 T01370007  RH  042%=      5-min Rain = 0
KTIS 172330Z 00000KT 13/00 A301 RMK A01 T01330004  RH  042%=      5-min Rain = 0
KTIS 172335Z 00000KT 13/01 A301 RMK A01 T01270005  RH  044%=      5-min Rain = 0
KTIS 172340Z 00000KT 12/01 A301 RMK A01 T01200006  RH  046%=      5-min Rain = 0
KTIS 172345Z 00000KT 12/01 A301 RMK A01 T01150006  RH  048%=      5-min Rain = 0
KTIS 172350Z 02000KT 11/01 A301 RMK A01 T01120006  RH  049%=      5-min Rain = 0
KTIS 172355Z 02000KT 11/00 A301 RMK A01 T01070004  RH  049%=      5-min Rain = 0
KTIS 180000Z 02000KT 10/00 A301 RMK A01 T01020004  RH  051%=      5-min Rain = 0
KTIS 180005Z 00000KT 10/00 A301 RMK A01 T01010004  RH  051%=      5-min Rain = 0
KTIS 180010Z 02000KT 10/00 A301 RMK A01 T01000003  RH  052%=      5-min Rain = 0
KTIS 180015Z 02001KT 09/01 A301 RMK A01 T00930006  RH  055%=      5-min Rain = 0
KTIS 180020Z 02001KT 08/02 A301 RMK A01 T00830016  RH  064%=      5-min Rain = 0
KTIS 180025Z 02002KT 08/02 A301 RMK A01 T00820015  RH  063%=      5-min Rain = 0
KTIS 180030Z 02003KT 08/01 A301 RMK A01 T00830011  RH  061%=      5-min Rain = 0
KTIS 180035Z 20004KT 08/01 A301 RMK A01 T00800006  RH  061%=      5-min Rain = 0
KTIS 180040Z 19004KT 08/00 A301 RMK A01 T00790003  RH  059%=      5-min Rain = 0
KTIS 180045Z 19004KT 08/01 A301 RMK A01 T00780008  RH  062%=      5-min Rain = 0
KTIS 180050Z 20003KT 08/01 A301 RMK A01 T00760006  RH  062%=      5-min Rain = 0
KTIS 180055Z 20004KT 08/01 A301 RMK A01 T00770006  RH  061%=      5-min Rain = 0
KTIS 180100Z 20004KT 07/01 A301 RMK A01 T00740014  RH  067%=      5-min Rain = 0
KTIS 180105Z 21003KT 07/00 A301 RMK A01 T00700003  RH  063%=      5-min Rain = 0
KTIS 180110Z 21003KT 07/M00 A301 RMK A01 T00651004  RH  062%=      5-min Rain = 0
KTIS 180115Z 21003KT 07/M00 A3011 RMK A01 T00681001  RH  062%=      5-min Rain = 0
KTIS 180120Z 20003KT 06/M00 A3011 RMK A01 T00641004  RH  063%=      5-min Rain = 0
KTIS 180125Z 20003KT 06/M00 A3011 RMK A01 T00601003  RH  065%=      5-min Rain = 0
KTIS 180130Z 20003KT 06/M00 A3011 RMK A01 T00621001  RH  065%=      5-min Rain = 0
KTIS 180135Z 20003KT 06/00 A3011 RMK A01 T00630000  RH  065%=      5-min Rain = 0
KTIS 180140Z 20003KT 07/M00 A3011 RMK A01 T00671001  RH  062%=      5-min Rain = 0
KTIS 180145Z 20003KT 07/00 A3011 RMK A01 T00650002  RH  065%=      5-min Rain = 0
KTIS 180150Z 20003KT 06/M00 A3011 RMK A01 T00601003  RH  064%=      5-min Rain = 0
KTIS 180155Z 20003KT 05/M01 A3011 RMK A01 T00521013  RH  063%=      5-min Rain = 0
KTIS 180200Z 20003KT 04/M01 A3011 RMK A01 T00441010  RH  068%=      5-min Rain = 0
KTIS 180205Z 20004KT 05/00 A3011 RMK A01 T004800-0  RH  072%=      5-min Rain = 0
KTIS 180210Z 20004KT 06/00 A3011 RMK A01 T00560003  RH  069%=      5-min Rain = 0
KTIS 180215Z 20004KT 05/00 A3011 RMK A01 T00530003  RH  071%=      5-min Rain = 0
KTIS 180220Z 20004KT 05/M00 A3011 RMK A01 T00531002  RH  068%=      5-min Rain = 0
KTIS 180225Z 19005KT 06/M00 A3011 RMK A01 T00581004  RH  065%=      5-min Rain = 0
KTIS 180230Z 19005KT 06/M00 A3011 RMK A01 T00591003  RH  065%=      5-min Rain = 0
KTIS 180235Z 19005KT 06/M00 A3011 RMK A01 T00571002  RH  067%=      5-min Rain = 0
KTIS 180240Z 20005KT 05/M01 A3011 RMK A01 T00531009  RH  065%=      5-min Rain = 0
KTIS 180245Z 20005KT 05/M01 A3011 RMK A01 T00481009  RH  067%=      5-min Rain = 0
KTIS 180250Z 20005KT 05/M01 A3011 RMK A01 T00521006  RH  067%=      5-min Rain = 0
KTIS 180255Z 20005KT 06/M00 A3011 RMK A01 T00551004  RH  066%=      5-min Rain = 0
KTIS 180300Z 20005KT 06/M00 A301 RMK A01 T00551001  RH  068%=      5-min Rain = 0
KTIS 180305Z 20005KT 05/M00 A3011 RMK A01 T00531003  RH  068%=      5-min Rain = 0
KTIS 180310Z 20005KT 05/M00 A3011 RMK A01 T00541003  RH  067%=      5-min Rain = 0
KTIS 180315Z 20005KT 05/M00 A3011 RMK A01 T00541002  RH  068%=      5-min Rain = 0
KTIS 180320Z 20004KT 05/M01 A3011 RMK A01 T00501008  RH  067%=      5-min Rain = 0
KTIS 180325Z 20005KT 04/M01 A3011 RMK A01 T00441011  RH  068%=      5-min Rain = 0
KTIS 180330Z 20004KT 04/M01 A3011 RMK A01 T00411012  RH  069%=      5-min Rain = 0
KTIS 180335Z 21004KT 04/M01 A3011 RMK A01 T00381012  RH  071%=      5-min Rain = 0
KTIS 180340Z 21003KT 04/M01 A3011 RMK A01 T00391012  RH  070%=      5-min Rain = 0
KTIS 180345Z 21002KT 04/M01 A3011 RMK A01 T00371012  RH  071%=      5-min Rain = 0
KTIS 180350Z 21003KT 04/M01 A3011 RMK A01 T00381010  RH  072%=      5-min Rain = 0
KTIS 180355Z 21005KT 03/M02 A3011 RMK A01 T00321015  RH  072%=      5-min Rain = 0
KTIS 180400Z 21005KT 03/M01 A3011 RMK A01 T00341011  RH  073%=      5-min Rain = 0
KTIS 180405Z 21004KT 04/M01 A301 RMK A01 T00361013  RH  071%=      5-min Rain = 0
KTIS 180410Z 21004KT 04/M01 A301 RMK A01 T00371011  RH  072%=      5-min Rain = 0
KTIS 180415Z 21005KT 04/M01 A301 RMK A01 T00391011  RH  071%=      5-min Rain = 0
KTIS 180420Z 21005KT 04/M01 A3009 RMK A01 T00391009  RH  071%=      5-min Rain = 0
KTIS 180425Z 21005KT 04/M01 A3009 RMK A01 T00391009  RH  071%=      5-min Rain = 0
KTIS 180430Z 21006KT 04/M01 A3009 RMK A01 T00371012  RH  071%=      5-min Rain = 0
KTIS 180435Z 21006KT 04/M01 A3009 RMK A01 T00361011  RH  072%=      5-min Rain = 0
KTIS 180440Z 22006KT 04/M01 A3009 RMK A01 T00371010  RH  072%=      5-min Rain = 0
KTIS 180445Z 22007KT 04/M01 A3009 RMK A01 T00371009  RH  072%=      5-min Rain = 0
KTIS 180450Z 22007KT 04/M01 A3009 RMK A01 T00381009  RH  072%=      5-min Rain = 0
KTIS 180455Z 22007KT 04/M01 A3009 RMK A01 T00381009  RH  072%=      5-min Rain = 0
KTIS 180500Z 22007KT 04/M01 A3009 RMK A01 T00391009  RH  072%=      5-min Rain = 0
KTIS 180505Z 22007KT 04/M01 A3008 RMK A01 T00391010  RH  071%=      5-min Rain = 0
KTIS 180510Z 22006KT 04/M01 A3008 RMK A01 T00381010  RH  072%=      5-min Rain = 0
KTIS 180515Z 22007KT 04/M01 A3007 RMK A01 T00361010  RH  072%=      5-min Rain = 0
KTIS 180520Z 22007KT 04/M01 A3007 RMK A01 T00381009  RH  072%=      5-min Rain = 0
KTIS 180525Z 22008KT 04/M01 A3007 RMK A01 T00411007  RH  071%=      5-min Rain = 0
KTIS 180530Z 22007KT 04/M01 A3007 RMK A01 T00441007  RH  070%=      5-min Rain = 0
KTIS 180535Z 22007KT 04/M01 A3007 RMK A01 T00441008  RH  070%=      5-min Rain = 0
KTIS 180540Z 22007KT 04/M01 A3006 RMK A01 T00431008  RH  070%=      5-min Rain = 0
KTIS 180545Z 22007KT 04/M01 A3006 RMK A01 T00441007  RH  070%=      5-min Rain = 0
KTIS 180550Z 22008KT 05/M01 A3006 RMK A01 T00471006  RH  069%=      5-min Rain = 0
KTIS 180555Z 22008KT 05/M01 A3006 RMK A01 T00491005  RH  069%=      5-min Rain = 0

Page generated in 0.009 seconds.